createdAt,value
2024-05-09T00:00:46.184Z,96683.23
2024-05-09T00:03:34.435Z,96682.93
2024-05-09T00:06:02.649Z,96683.19
2024-05-09T00:08:30.813Z,96681.83
2024-05-09T00:10:59.129Z,96680.04
2024-05-09T00:13:27.155Z,96677.47
2024-05-09T00:15:55.046Z,96671.05
2024-05-09T00:18:23.141Z,96674.67
2024-05-09T00:20:51.500Z,96677.94
2024-05-09T00:23:19.824Z,96678.77
2024-05-09T00:25:48.086Z,96679.77
2024-05-09T00:28:16.328Z,96677.79
2024-05-09T00:30:44.758Z,96679.27
2024-05-09T00:33:12.923Z,96677.73
2024-05-09T00:35:41.357Z,96676.95
2024-05-09T00:38:10.273Z,96677.27
2024-05-09T00:40:43.302Z,96679.73
2024-05-09T00:43:12.962Z,96683.70
2024-05-09T00:45:42.244Z,96688.08
2024-05-09T00:48:13.395Z,96687.41
2024-05-09T00:50:44.123Z,96680.80
2024-05-09T00:53:13.318Z,96682.90
2024-05-09T00:55:41.576Z,96685.09
2024-05-09T00:58:10.726Z,96680.55
2024-05-09T01:00:40.824Z,96683.38
2024-05-09T01:03:11.862Z,96684.30
2024-05-09T01:05:42.537Z,96680.34
2024-05-09T01:08:11.204Z,96683.80
2024-05-09T01:10:41.749Z,96684.88
2024-05-09T01:13:12.116Z,96686.73
2024-05-09T01:15:40.201Z,96687.27
2024-05-09T01:18:10.571Z,96690.59
2024-05-09T01:20:42.860Z,96691.48
2024-05-09T01:23:14.867Z,96687.14
2024-05-09T01:25:45.912Z,96689.20
2024-05-09T01:28:14.859Z,96690.27
2024-05-09T01:30:42.807Z,96687.91
2024-05-09T01:33:12.399Z,96690.80
2024-05-09T01:35:42.537Z,96689.89
2024-05-09T01:38:16.992Z,96688.27
2024-05-09T01:40:45.821Z,96688.34
2024-05-09T01:43:14.433Z,96687.39
2024-05-09T01:45:42.506Z,96684.77
2024-05-09T01:48:11.304Z,96684.38
2024-05-09T01:50:42.405Z,96683.77
2024-05-09T01:53:13.637Z,96680.84
2024-05-09T01:55:42.570Z,96677.16
2024-05-09T01:58:10.878Z,96672.13
2024-05-09T02:00:42.179Z,96671.31
2024-05-09T02:03:15.596Z,96667.21
2024-05-09T02:05:47.455Z,96670.00
2024-05-09T02:08:18.279Z,96672.61
2024-05-09T02:10:47.724Z,96671.34
2024-05-09T02:13:16.623Z,96672.30
2024-05-09T02:15:44.950Z,96673.61
2024-05-09T02:18:13.463Z,96675.95
2024-05-09T02:20:42.786Z,96677.02
2024-05-09T02:23:11.979Z,96683.98
2024-05-09T02:25:41.426Z,96681.60
2024-05-09T02:28:09.541Z,96685.08
2024-05-09T02:30:40.788Z,96689.09
2024-05-09T02:33:12.297Z,96693.45
2024-05-09T02:35:43.460Z,96695.30
2024-05-09T02:38:12.838Z,96694.48
2024-05-09T02:40:41.404Z,96695.55
2024-05-09T02:43:12.371Z,96696.86
2024-05-09T02:45:41.086Z,96699.45
2024-05-09T02:48:13.393Z,96702.16
2024-05-09T02:50:44.270Z,96698.45
2024-05-09T02:53:13.856Z,96703.93
2024-05-09T02:55:42.945Z,96704.13
2024-05-09T02:58:11.340Z,96704.33
2024-05-09T03:00:41.729Z,96707.98
2024-05-09T03:03:13.493Z,96707.95
2024-05-09T03:05:45.196Z,96712.18
2024-05-09T03:08:13.773Z,96714.01
2024-05-09T03:10:42.038Z,96711.24
2024-05-09T03:13:12.659Z,96708.94
2024-05-09T03:15:42.407Z,96710.58
2024-05-09T03:18:10.969Z,96707.33
2024-05-09T03:20:39.900Z,96710.33
2024-05-09T03:23:09.464Z,96709.41
2024-05-09T03:25:38.911Z,96709.39
2024-05-09T03:28:07.272Z,96714.40
2024-05-09T03:30:40.755Z,96710.11
2024-05-09T03:33:22.741Z,96710.88
2024-05-09T03:35:51.039Z,96712.41
2024-05-09T03:38:18.873Z,96715.98
2024-05-09T03:40:48.044Z,96718.80
2024-05-09T03:43:16.615Z,96723.09
2024-05-09T03:45:45.149Z,96721.33
2024-05-09T03:48:13.503Z,96722.36
2024-05-09T03:50:41.676Z,96720.18
2024-05-09T03:53:10.977Z,96728.34
2024-05-09T03:55:39.408Z,96729.59
2024-05-09T03:58:12.626Z,96731.19
2024-05-09T04:00:41.904Z,96731.95
2024-05-09T04:03:12.170Z,96731.00
2024-05-09T04:05:42.695Z,96731.15
2024-05-09T04:08:14.866Z,96733.14
2024-05-09T04:10:43.428Z,96736.81
2024-05-09T04:13:11.614Z,96735.58
2024-05-09T04:15:39.613Z,96732.96
2024-05-09T04:18:08.114Z,96740.86
2024-05-09T04:20:39.617Z,96739.48
2024-05-09T04:23:13.565Z,96741.15
2024-05-09T04:25:43.551Z,96744.55
2024-05-09T04:28:11.875Z,96748.91
2024-05-09T04:30:41.498Z,96748.15
2024-05-09T04:33:12.557Z,96746.89
2024-05-09T04:35:43.347Z,96748.46
2024-05-09T04:38:15.422Z,96750.06
2024-05-09T04:40:43.918Z,96751.77
2024-05-09T04:43:16.153Z,96749.77
2024-05-09T04:45:44.394Z,96749.25
2024-05-09T04:48:12.674Z,96743.95
2024-05-09T04:50:41.137Z,96745.92
2024-05-09T04:53:10.830Z,96740.95
2024-05-09T04:55:40.423Z,96743.09
2024-05-09T04:58:09.118Z,96745.48
2024-05-09T05:00:39.129Z,96748.41
2024-05-09T05:03:12.779Z,96756.39
2024-05-09T05:05:44.973Z,96758.45
2024-05-09T05:08:18.637Z,96763.96
2024-05-09T05:10:48.536Z,96762.29
2024-05-09T05:13:21.590Z,96762.02
2024-05-09T05:15:58.123Z,96764.82
2024-05-09T05:18:27.658Z,96767.60
2024-05-09T05:20:56.674Z,96769.47
2024-05-09T05:23:25.014Z,96771.88
2024-05-09T05:25:55.380Z,96775.13
2024-05-09T05:28:23.978Z,96777.61
2024-05-09T05:30:52.207Z,96780.91
2024-05-09T05:33:22.324Z,96782.94
2024-05-09T05:35:51.214Z,96781.19
2024-05-09T05:38:21.947Z,96783.17
2024-05-09T05:40:52.170Z,96783.29
2024-05-09T05:43:20.484Z,96786.98
2024-05-09T05:45:48.597Z,96786.27
2024-05-09T05:48:17.431Z,96791.31
2024-05-09T05:50:46.327Z,96790.63
2024-05-09T05:53:14.783Z,96787.79
2024-05-09T05:55:43.117Z,96789.35
2024-05-09T05:58:11.970Z,96790.87
2024-05-09T06:00:41.693Z,96791.79
2024-05-09T06:03:12.342Z,96790.91
2024-05-09T06:05:43.194Z,96788.27
2024-05-09T06:08:12.058Z,96786.48
2024-05-09T06:10:41.436Z,96787.05
2024-05-09T06:13:13.500Z,96784.55
2024-05-09T06:15:42.608Z,96784.73
2024-05-09T06:18:12.372Z,96787.84
2024-05-09T06:20:43.012Z,96785.32
2024-05-09T06:23:12.708Z,96783.70
2024-05-09T06:25:42.083Z,96785.84
2024-05-09T06:28:10.668Z,96786.33
2024-05-09T06:30:41.949Z,96783.23
2024-05-09T06:33:13.330Z,96784.86
2024-05-09T06:35:44.617Z,96787.66
2024-05-09T06:38:13.189Z,96791.91
2024-05-09T06:40:43.640Z,96789.41
2024-05-09T06:43:17.860Z,96792.00
2024-05-09T06:45:50.629Z,96795.69
2024-05-09T06:48:19.602Z,96794.08
2024-05-09T06:50:48.393Z,96795.35
2024-05-09T06:53:17.062Z,96798.50
2024-05-09T06:55:45.289Z,96802.27
2024-05-09T06:58:13.535Z,96804.23
2024-05-09T07:00:42.343Z,96806.75
2024-05-09T07:03:13.175Z,96809.21
2024-05-09T07:05:43.419Z,96812.83
2024-05-09T07:08:11.767Z,96816.03
2024-05-09T07:10:39.945Z,96814.54
2024-05-09T07:13:09.656Z,96817.70
2024-05-09T07:15:38.086Z,96819.87
2024-05-09T07:18:13.254Z,96824.23
2024-05-09T07:20:41.973Z,96824.45
2024-05-09T07:23:10.731Z,96826.05
2024-05-09T07:25:39.806Z,96826.03
2024-05-09T07:28:17.533Z,96824.75
2024-05-09T07:30:45.767Z,96823.27
2024-05-09T07:33:22.201Z,96826.31
2024-05-09T07:35:52.235Z,96824.28
2024-05-09T07:38:20.586Z,96822.29
2024-05-09T07:40:49.105Z,96827.10
2024-05-09T07:43:17.305Z,96834.48
2024-05-09T07:45:52.479Z,96833.76
2024-05-09T07:52:38.484Z,96837.31
2024-05-09T07:53:47.238Z,96835.86
2024-05-09T07:56:21.198Z,96836.55
2024-05-09T07:58:51.635Z,96833.39
2024-05-09T08:01:20.498Z,96834.71
2024-05-09T08:03:50.857Z,96833.65
2024-05-09T08:06:19.187Z,96836.20
2024-05-09T08:08:47.563Z,96835.30
2024-05-09T08:11:15.671Z,96838.97
2024-05-09T08:13:43.910Z,96837.91
2024-05-09T08:16:13.552Z,96841.68
2024-05-09T08:18:43.023Z,96844.32
2024-05-09T08:21:11.173Z,96848.70
2024-05-09T08:23:39.258Z,96849.59
2024-05-09T08:26:07.329Z,96851.52
2024-05-09T08:28:35.440Z,96854.14
2024-05-09T08:31:06.897Z,96853.89
2024-05-09T08:33:36.200Z,96852.81
2024-05-09T08:36:04.650Z,96855.48
2024-05-09T08:38:32.879Z,96854.11
2024-05-09T08:41:02.056Z,96859.35
2024-05-09T08:43:30.320Z,96856.98
2024-05-09T08:45:58.977Z,96861.58
2024-05-09T08:48:27.208Z,96868.23
2024-05-09T08:50:59.191Z,96869.00
2024-05-09T08:53:27.535Z,96871.33
2024-05-09T08:55:55.550Z,96874.01
2024-05-09T08:58:23.634Z,96874.45
2024-05-09T09:00:51.781Z,96876.61
2024-05-09T09:03:21.779Z,96877.08
2024-05-09T09:06:12.066Z,96877.12
2024-05-09T09:08:40.425Z,96875.59
2024-05-09T09:11:08.660Z,96877.55
2024-05-09T09:13:36.573Z,96881.30
2024-05-09T09:16:05.086Z,96880.16
2024-05-09T09:18:34.333Z,96885.46
2024-05-09T09:21:03.225Z,96882.59
2024-05-09T09:23:31.520Z,96882.15
2024-05-09T09:26:00.258Z,96883.05
2024-05-09T09:28:29.333Z,96885.18
2024-05-09T09:31:01.985Z,96886.29
2024-05-09T09:33:31.233Z,96888.33
2024-05-09T09:36:00.372Z,96888.36
2024-05-09T09:38:29.352Z,96889.51
2024-05-09T09:40:57.867Z,96889.52
2024-05-09T09:43:25.917Z,96893.30
2024-05-09T09:45:55.817Z,96893.85
2024-05-09T09:48:24.077Z,96901.34
2024-05-09T09:50:52.746Z,96896.70
2024-05-09T09:53:22.512Z,96897.02
2024-05-09T09:55:51.357Z,96894.91
2024-05-09T09:58:19.578Z,96896.00
2024-05-09T10:00:51.193Z,96895.73
2024-05-09T10:03:19.646Z,96903.36
2024-05-09T10:05:48.568Z,96903.41
2024-05-09T10:08:17.516Z,96902.20
2024-05-09T10:10:47.118Z,96902.58
2024-05-09T10:13:15.950Z,96904.98
2024-05-09T10:15:50.456Z,96906.16
2024-05-09T10:18:27.105Z,96906.31
2024-05-09T10:20:57.778Z,96905.92
2024-05-09T10:23:30.098Z,96905.34
2024-05-09T10:26:03.250Z,96912.64
2024-05-09T10:28:36.718Z,96908.52
2024-05-09T10:31:15.591Z,96904.02
2024-05-09T10:33:51.852Z,96906.36
2024-05-09T10:36:22.131Z,96901.83
2024-05-09T10:38:50.870Z,96901.45
2024-05-09T10:41:19.671Z,96904.04
2024-05-09T10:43:48.001Z,96905.39
2024-05-09T10:46:16.699Z,96905.02
2024-05-09T10:48:45.543Z,96903.72
2024-05-09T10:51:13.949Z,96902.83
2024-05-09T10:53:46.640Z,96903.29
2024-05-09T10:56:15.042Z,96902.64
2024-05-09T10:58:43.330Z,96898.97
2024-05-09T11:01:11.829Z,96901.41
2024-05-09T11:03:40.517Z,96898.12
2024-05-09T11:06:09.557Z,96903.73
2024-05-09T11:08:37.784Z,96905.34
2024-05-09T11:11:07.468Z,96904.55
2024-05-09T11:13:37.920Z,96903.02
2024-05-09T11:16:15.949Z,96903.88
2024-05-09T11:18:44.434Z,96902.05
2024-05-09T11:21:13.535Z,96904.17
2024-05-09T11:23:41.994Z,96908.48
2024-05-09T11:26:11.267Z,96906.61
2024-05-09T11:28:39.509Z,96904.92
2024-05-09T11:31:09.393Z,96902.10
2024-05-09T11:33:43.951Z,96903.48
2024-05-09T11:36:12.741Z,96906.16
2024-05-09T11:38:41.144Z,96909.88
2024-05-09T11:41:09.115Z,96907.36
2024-05-09T11:43:37.307Z,96913.73
2024-05-09T11:46:05.502Z,96917.52
2024-05-09T11:48:34.105Z,96917.53
2024-05-09T11:51:02.316Z,96914.66
2024-05-09T11:53:30.271Z,96914.84
2024-05-09T11:55:58.317Z,96914.24
2024-05-09T11:58:26.521Z,96912.90
2024-05-09T12:00:54.798Z,96916.33
2024-05-09T12:03:22.956Z,96915.98
2024-05-09T12:05:51.423Z,96916.59
2024-05-09T12:08:19.849Z,96919.81
2024-05-09T12:10:48.040Z,96924.30
2024-05-09T12:13:16.752Z,96924.89
2024-05-09T12:15:44.816Z,96925.15
2024-05-09T12:18:12.986Z,96924.58
2024-05-09T12:20:41.109Z,96925.52
2024-05-09T12:23:10.379Z,96925.83
2024-05-09T12:25:39.837Z,96923.27
2024-05-09T12:28:08.588Z,96926.09
2024-05-09T12:30:39.999Z,96923.77
2024-05-09T12:33:13.197Z,96922.21
2024-05-09T12:35:44.372Z,96922.48
2024-05-09T12:38:15.281Z,96921.36
2024-05-09T12:40:43.855Z,96922.13
2024-05-09T12:43:12.324Z,96917.72
2024-05-09T12:45:40.643Z,96918.92
2024-05-09T12:48:11.713Z,96918.36
2024-05-09T12:50:40.843Z,96919.66
2024-05-09T12:53:09.273Z,96919.38
2024-05-09T12:55:44.798Z,96917.65
2024-05-09T12:58:24.400Z,96919.14
2024-05-09T13:00:52.976Z,96923.62
2024-05-09T13:03:21.922Z,96930.56
2024-05-09T13:05:50.773Z,96929.27
2024-05-09T13:08:18.759Z,96928.73
2024-05-09T13:10:47.385Z,96927.87
2024-05-09T13:13:15.899Z,96924.23
2024-05-09T13:15:43.988Z,96925.33
2024-05-09T13:18:12.098Z,96923.19
2024-05-09T13:20:40.651Z,96924.21
2024-05-09T13:23:08.897Z,96920.99
2024-05-09T13:25:38.158Z,96922.67
2024-05-09T13:28:07.167Z,96921.14
2024-05-09T13:30:40.324Z,96921.13
2024-05-09T13:33:12.016Z,96923.91
2024-05-09T13:35:47.833Z,96916.96
2024-05-09T13:38:19.245Z,96911.15
2024-05-09T13:40:48.291Z,96905.36
2024-05-09T13:43:17.383Z,96904.93
2024-05-09T13:45:45.858Z,96902.23
2024-05-09T13:48:14.255Z,96901.41
2024-05-09T13:50:42.403Z,96895.95
2024-05-09T13:53:10.436Z,96896.50
2024-05-09T13:55:38.803Z,96889.96
2024-05-09T13:58:07.420Z,96884.38
2024-05-09T14:00:44.908Z,96881.59
2024-05-09T14:03:19.152Z,96874.54
2024-05-09T14:05:50.622Z,96870.33
2024-05-09T14:08:21.280Z,96863.98
2024-05-09T14:10:49.712Z,96860.80
2024-05-09T14:13:18.511Z,96862.35
2024-05-09T14:15:46.971Z,96872.35
2024-05-09T14:18:15.293Z,96877.39
2024-05-09T14:20:43.465Z,96877.67
2024-05-09T14:23:11.466Z,96877.77
2024-05-09T14:25:42.610Z,96872.48
2024-05-09T14:28:13.060Z,96873.67
2024-05-09T14:30:42.403Z,96868.71
2024-05-09T14:33:11.571Z,96865.97
2024-05-09T14:35:40.023Z,96868.32
2024-05-09T14:38:08.934Z,96868.38
2024-05-09T14:40:42.229Z,96868.80
2024-05-09T14:43:13.747Z,96871.83
2024-05-09T14:45:43.452Z,96881.89
2024-05-09T14:48:14.521Z,96887.80
2024-05-09T14:50:42.902Z,96889.50
2024-05-09T14:53:11.644Z,96890.16
2024-05-09T14:55:41.175Z,96885.10
2024-05-09T14:58:11.407Z,96881.91
2024-05-09T15:00:47.735Z,96882.35
2024-05-09T15:03:19.637Z,96885.32
2024-05-09T15:05:48.402Z,96883.68
2024-05-09T15:08:17.332Z,96886.04
2024-05-09T15:10:45.662Z,96884.88
2024-05-09T15:13:16.404Z,96882.65
2024-05-09T15:15:45.486Z,96885.86
2024-05-09T15:18:14.320Z,96886.02
2024-05-09T15:20:43.581Z,96886.76
2024-05-09T15:23:11.861Z,96884.67
2024-05-09T15:25:40.355Z,96883.67
2024-05-09T15:28:08.712Z,96880.88
2024-05-09T15:30:37.350Z,96877.27
2024-05-09T15:33:07.189Z,96875.82
2024-05-09T15:35:40.987Z,96872.88
2024-05-09T15:38:09.151Z,96871.38
2024-05-09T15:40:40.061Z,96872.23
2024-05-09T15:43:10.588Z,96874.34
2024-05-09T15:45:41.890Z,96876.75
2024-05-09T15:48:10.747Z,96884.41
2024-05-09T15:50:41.612Z,96883.34
2024-05-09T15:53:12.398Z,96881.88
2024-05-09T15:55:42.275Z,96883.98
2024-05-09T15:58:10.793Z,96882.66
2024-05-09T16:00:42.382Z,96885.92
2024-05-09T16:03:13.276Z,96884.80
2024-05-09T16:05:43.752Z,96880.48
2024-05-09T16:08:12.491Z,96883.73
2024-05-09T16:10:44.393Z,96886.73
2024-05-09T16:13:14.015Z,96884.51
2024-05-09T16:15:43.440Z,96882.15
2024-05-09T16:18:11.707Z,96879.64
2024-05-09T16:20:42.131Z,96882.41
2024-05-09T16:23:12.552Z,96880.06
2024-05-09T16:25:45.093Z,96878.86
2024-05-09T16:28:13.093Z,96880.38
2024-05-09T16:30:41.565Z,96877.95
2024-05-09T16:33:11.668Z,96877.39
2024-05-09T16:35:40.355Z,96874.23
2024-05-09T16:38:08.497Z,96876.76
2024-05-09T16:40:39.976Z,96878.89
2024-05-09T16:43:10.745Z,96880.63
2024-05-09T16:45:39.827Z,96884.55
2024-05-09T16:48:08.770Z,96888.52
2024-05-09T16:50:37.154Z,96890.10
2024-05-09T16:53:06.580Z,96893.27
2024-05-09T16:55:35.764Z,96888.20
2024-05-09T16:58:05.012Z,96889.73
2024-05-09T17:00:40.715Z,96894.27
2024-05-09T17:03:15.692Z,96895.66
2024-05-09T17:05:48.427Z,96894.80
2024-05-09T17:08:17.808Z,96897.45
2024-05-09T17:10:48.691Z,96898.85
2024-05-09T17:13:18.300Z,96904.05
2024-05-09T17:15:46.768Z,96902.05
2024-05-09T17:18:15.649Z,96904.02
2024-05-09T17:20:43.689Z,96902.76
2024-05-09T17:23:14.915Z,96898.16
2024-05-09T17:25:43.158Z,96901.74
2024-05-09T17:28:11.694Z,96898.89
2024-05-09T17:30:41.740Z,96897.14
2024-05-09T17:33:11.974Z,96898.70
2024-05-09T17:35:41.095Z,96899.64
2024-05-09T17:38:09.241Z,96901.93
2024-05-09T17:40:38.896Z,96897.77
2024-05-09T17:43:09.461Z,96900.00
2024-05-09T17:45:40.495Z,96897.45
2024-05-09T17:48:10.692Z,96894.41
2024-05-09T17:50:40.203Z,96893.19
2024-05-09T17:53:09.312Z,96894.06
2024-05-09T17:55:37.669Z,96894.21
2024-05-09T17:58:05.999Z,96896.25
2024-05-09T18:00:39.415Z,96900.97
2024-05-09T18:03:13.982Z,96905.11
2024-05-09T18:05:44.789Z,96906.56
2024-05-09T18:08:13.904Z,96911.91
2024-05-09T18:10:42.503Z,96922.59
2024-05-09T18:13:12.080Z,96925.08
2024-05-09T18:15:40.820Z,96929.29
2024-05-09T18:18:10.196Z,96930.95
2024-05-09T18:20:43.708Z,96934.34
2024-05-09T18:23:16.416Z,96936.85
2024-05-09T18:25:47.037Z,96929.98
2024-05-09T18:28:16.722Z,96937.23
2024-05-09T18:30:45.304Z,96937.39
2024-05-09T18:33:13.927Z,96941.02
2024-05-09T18:35:42.913Z,96944.02
2024-05-09T18:38:11.026Z,96951.01
2024-05-09T18:40:41.016Z,96950.90
2024-05-09T18:43:11.526Z,96951.27
2024-05-09T18:45:39.984Z,96953.19
2024-05-09T18:48:09.654Z,96950.10
2024-05-09T18:50:40.572Z,96946.17
2024-05-09T18:53:11.569Z,96949.14
2024-05-09T18:55:41.642Z,96951.20
2024-05-09T18:58:09.751Z,96957.17
2024-05-09T19:00:40.374Z,96961.33
2024-05-09T19:03:13.200Z,96965.00
2024-05-09T19:05:44.661Z,96971.61
2024-05-09T19:08:14.806Z,96975.80
2024-05-09T19:10:45.214Z,96971.98
2024-05-09T19:13:14.364Z,96976.20
2024-05-09T19:15:43.956Z,96984.13
2024-05-09T19:18:13.626Z,96983.58
2024-05-09T19:20:43.070Z,96989.67
2024-05-09T19:23:11.479Z,96994.31
2024-05-09T19:25:39.728Z,96987.37
2024-05-09T19:28:07.764Z,96998.79
2024-05-09T19:30:40.276Z,96990.45
2024-05-09T19:33:12.704Z,96996.90
2024-05-09T19:35:42.812Z,96999.36
2024-05-09T19:38:11.805Z,96999.05
2024-05-09T19:40:40.128Z,96994.65
2024-05-09T19:43:08.532Z,96995.14
2024-05-09T19:45:37.008Z,96992.58
2024-05-09T19:48:06.573Z,96990.35
2024-05-09T19:50:41.635Z,96996.48
2024-05-09T19:53:13.754Z,96996.66
2024-05-09T19:55:42.155Z,96995.33
2024-05-09T19:58:10.430Z,97002.85
2024-05-09T20:00:41.504Z,96999.10
2024-05-09T20:03:13.560Z,97005.79
2024-05-09T20:05:43.810Z,97011.91
2024-05-09T20:08:12.226Z,97008.08
2024-05-09T20:10:40.344Z,97005.89
2024-05-09T20:13:08.937Z,97011.72
2024-05-09T20:15:37.965Z,97007.68
2024-05-09T20:18:06.976Z,97016.83
2024-05-09T20:20:39.821Z,97008.42
2024-05-09T20:23:11.453Z,97008.08
2024-05-09T20:25:40.273Z,97004.56
2024-05-09T20:28:08.494Z,97008.59
2024-05-09T20:30:36.883Z,97010.02
2024-05-09T20:33:09.445Z,97017.85
2024-05-09T20:35:38.189Z,97019.77
2024-05-09T20:38:06.174Z,97013.59
2024-05-09T20:40:37.677Z,97013.19
2024-05-09T20:43:08.339Z,97015.77
2024-05-09T20:45:36.717Z,97007.65
2024-05-09T20:48:06.158Z,97009.04
2024-05-09T20:50:39.319Z,97006.21
2024-05-09T20:53:11.562Z,97007.93
2024-05-09T20:55:40.147Z,97008.06
2024-05-09T20:58:09.119Z,97011.97
2024-05-09T21:00:41.114Z,97003.13
2024-05-09T21:03:12.828Z,97009.46
2024-05-09T21:05:41.939Z,97009.95
2024-05-09T21:08:10.053Z,97009.56
2024-05-09T21:10:38.419Z,97012.63
2024-05-09T21:13:07.262Z,97019.16
2024-05-09T21:15:36.210Z,97016.77
2024-05-09T21:18:05.185Z,97025.19
2024-05-09T21:20:34.421Z,97023.77
2024-05-09T21:23:03.831Z,97025.55
2024-05-09T21:25:32.423Z,97028.30
2024-05-09T21:28:00.894Z,97027.34
2024-05-09T21:30:38.524Z,97028.41
2024-05-09T21:33:12.901Z,97025.24
2024-05-09T21:35:43.204Z,97024.81
2024-05-09T21:38:13.166Z,97026.36
2024-05-09T21:40:41.197Z,97026.80
2024-05-09T21:43:09.369Z,97027.96
2024-05-09T21:45:37.876Z,97022.23
2024-05-09T21:48:06.983Z,97024.70
2024-05-09T21:50:40.561Z,97016.50
2024-05-09T21:53:11.563Z,97026.46
2024-05-09T21:55:40.102Z,97027.45
2024-05-09T21:58:08.247Z,97026.67
2024-05-09T22:00:39.214Z,97028.65
2024-05-09T22:03:08.920Z,97027.41
2024-05-09T22:05:38.922Z,97028.56
2024-05-09T22:08:07.606Z,97031.70
2024-05-09T22:10:36.812Z,97032.42
2024-05-09T22:13:06.263Z,97031.20
2024-05-09T22:15:36.809Z,97029.09
2024-05-09T22:18:06.402Z,97030.44
2024-05-09T22:20:38.234Z,97035.84
2024-05-09T22:23:08.410Z,97039.35
2024-05-09T22:25:38.276Z,97039.63
2024-05-09T22:28:07.222Z,97037.96
2024-05-09T22:30:38.787Z,97043.25
2024-05-09T22:33:09.904Z,97041.65
2024-05-09T22:35:40.014Z,97045.39
2024-05-09T22:38:08.371Z,97045.52
2024-05-09T22:40:45.396Z,97046.10
2024-05-09T22:43:21.513Z,97046.52
2024-05-09T22:45:51.962Z,97046.60
2024-05-09T22:48:20.378Z,97049.40
2024-05-09T22:50:48.733Z,97050.07
2024-05-09T22:53:18.133Z,97050.68
2024-05-09T22:55:46.170Z,97052.32
2024-05-09T22:58:14.138Z,97048.08
2024-05-09T23:00:42.188Z,97052.34
2024-05-09T23:03:10.535Z,97049.34
2024-05-09T23:05:38.758Z,97051.56
2024-05-09T23:08:08.494Z,97050.56
2024-05-09T23:10:38.006Z,97050.13
2024-05-09T23:13:07.682Z,97052.65
2024-05-09T23:15:37.129Z,97052.56
2024-05-09T23:18:05.872Z,97052.73
2024-05-09T23:20:38.274Z,97052.29
2024-05-09T23:23:08.789Z,97050.83
2024-05-09T23:25:37.733Z,97048.09
2024-05-09T23:28:06.515Z,97045.02
2024-05-09T23:30:38.759Z,97047.34
2024-05-09T23:33:12.682Z,97050.47
2024-05-09T23:35:41.754Z,97046.59
2024-05-09T23:38:09.816Z,97046.79
2024-05-09T23:40:40.526Z,97046.59
2024-05-09T23:43:10.612Z,97048.36
2024-05-09T23:45:39.257Z,97041.65
2024-05-09T23:48:07.976Z,97037.88
2024-05-09T23:50:38.380Z,97037.43
2024-05-09T23:53:10.524Z,97035.00
2024-05-09T23:55:39.315Z,97034.39
2024-05-09T23:58:08.345Z,97035.86
